Time;durP1;ratioP1;P1;durP2;ratioP2;P2;SDS_P1;SDS_P2;PMS_P1;PMS_P2;Temp;Humidity;BMP_temperature;BMP_pressure;BME280_temperature;BME280_humidity;BME280_pressure;Samples;Min_cycle;Max_cycle;Signal;HPM_P1;HPM_P2
2021/09/07 00:00:18;;;;;;;12.13;6.75;;;;;;;;;;5010598;28;20516;-67
2021/09/07 00:02:46;;;;;;;12.75;7.43;;;;;;;;;;5010730;28;20050;-67
2021/09/07 00:05:15;;;;;;;11.88;7.00;;;;;;;;;;5011386;28;20053;-68
2021/09/07 00:07:43;;;;;;;16.52;7.72;;;;;;;;;;5011145;28;20054;-67
2021/09/07 00:10:12;;;;;;;13.48;6.70;;;;;;;;;;5010643;28;20129;-68
2021/09/07 00:12:41;;;;;;;12.45;6.90;;;;;;;;;;5011650;28;20048;-67
2021/09/07 00:15:10;;;;;;;12.73;7.22;;;;;;;;;;5011042;28;20140;-67
2021/09/07 00:17:40;;;;;;;12.68;7.18;;;;;;;;;;5010666;28;20585;-67
2021/09/07 00:20:09;;;;;;;11.73;6.18;;;;;;;;;;5006831;28;20207;-69
2021/09/07 00:22:38;;;;;;;13.32;6.43;;;;;;;;;;5010078;28;20053;-69
2021/09/07 00:25:07;;;;;;;10.68;6.03;;;;;;;;;;5009405;28;20046;-67
2021/09/07 00:27:36;;;;;;;11.60;6.35;;;;;;;;;;5004916;28;20081;-67
2021/09/07 00:30:05;;;;;;;13.50;6.70;;;;;;;;;;5008741;28;20054;-67
2021/09/07 00:32:33;;;;;;;15.02;7.43;;;;;;;;;;5010098;28;20041;-72
2021/09/07 00:35:03;;;;;;;14.70;6.93;;;;;;;;;;5009495;28;20438;-67
2021/09/07 00:37:32;;;;;;;14.65;7.25;;;;;;;;;;5011314;28;20523;-67
2021/09/07 00:40:00;;;;;;;15.55;6.70;;;;;;;;;;5010619;28;20129;-67
2021/09/07 00:42:28;;;;;;;13.63;7.18;;;;;;;;;;5009047;28;20518;-67
2021/09/07 00:44:57;;;;;;;13.52;6.63;;;;;;;;;;5010277;28;20051;-69
2021/09/07 00:47:25;;;;;;;12.05;6.35;;;;;;;;;;5011106;28;20061;-69
2021/09/07 00:49:53;;;;;;;12.88;6.47;;;;;;;;;;5010262;28;20391;-67
2021/09/07 00:52:23;;;;;;;14.85;7.03;;;;;;;;;;5009931;28;20121;-67
2021/09/07 00:54:52;;;;;;;14.18;7.13;;;;;;;;;;5010422;28;20058;-67
2021/09/07 00:57:21;;;;;;;11.93;6.63;;;;;;;;;;5010876;28;20048;-68
2021/09/07 00:59:49;;;;;;;12.90;6.75;;;;;;;;;;5009887;28;20052;-69
2021/09/07 01:02:17;;;;;;;12.98;6.68;;;;;;;;;;5010815;28;20129;-68
2021/09/07 01:04:46;;;;;;;11.70;6.32;;;;;;;;;;5003591;28;20570;-68
2021/09/07 01:07:14;;;;;;;13.05;6.80;;;;;;;;;;5004903;28;20068;-69
2021/09/07 01:09:44;;;;;;;13.07;6.78;;;;;;;;;;5003941;28;20038;-67
2021/09/07 01:12:13;;;;;;;12.80;6.30;;;;;;;;;;5001660;28;20122;-72
2021/09/07 01:14:42;;;;;;;12.32;6.47;;;;;;;;;;5004237;28;20133;-68
2021/09/07 01:17:14;;;;;;;14.35;6.18;;;;;;;;;;5007941;28;20104;-67
2021/09/07 01:19:45;;;;;;;13.35;6.97;;;;;;;;;;5004000;28;20048;-68
2021/09/07 01:22:14;;;;;;;15.48;7.22;;;;;;;;;;5005731;28;20466;-67
2021/09/07 01:24:43;;;;;;;12.82;7.03;;;;;;;;;;5004757;28;20042;-67
2021/09/07 01:27:12;;;;;;;14.70;6.85;;;;;;;;;;5009575;28;20053;-69
2021/09/07 01:29:41;;;;;;;13.07;6.88;;;;;;;;;;5011079;28;20048;-68
2021/09/07 01:32:10;;;;;;;14.68;6.70;;;;;;;;;;5008578;28;20393;-67
2021/09/07 01:34:39;;;;;;;14.65;7.05;;;;;;;;;;5001986;28;20566;-67
2021/09/07 01:37:07;;;;;;;14.68;6.28;;;;;;;;;;5007580;28;20673;-67
2021/09/07 01:39:37;;;;;;;11.40;5.72;;;;;;;;;;5010281;28;20046;-67
2021/09/07 01:42:07;;;;;;;14.93;6.70;;;;;;;;;;5009736;28;20077;-68
2021/09/07 01:44:35;;;;;;;13.30;6.38;;;;;;;;;;5009041;28;20144;-69
2021/09/07 01:47:04;;;;;;;13.30;6.65;;;;;;;;;;5008974;28;20046;-67
2021/09/07 01:49:32;;;;;;;12.90;6.70;;;;;;;;;;5009750;28;20564;-67
2021/09/07 01:52:09;;;;;;;12.60;6.05;;;;;;;;;;5009900;28;20064;-68
2021/09/07 01:54:40;;;;;;;10.55;6.47;;;;;;;;;;5010025;28;20149;-68
2021/09/07 01:57:10;;;;;;;11.82;6.00;;;;;;;;;;5010779;28;20050;-69
2021/09/07 01:59:38;;;;;;;12.80;6.07;;;;;;;;;;5009733;28;20128;-68
2021/09/07 02:02:06;;;;;;;13.20;6.25;;;;;;;;;;5009680;28;20061;-68
2021/09/07 02:04:35;;;;;;;11.02;6.00;;;;;;;;;;5011584;28;20401;-67
2021/09/07 02:07:03;;;;;;;15.13;6.60;;;;;;;;;;5009340;28;20060;-67
2021/09/07 02:09:31;;;;;;;10.00;5.85;;;;;;;;;;5014345;28;20050;-67
2021/09/07 02:12:00;;;;;;;10.73;5.90;;;;;;;;;;5013469;28;20565;-67
2021/09/07 02:14:29;;;;;;;10.93;5.80;;;;;;;;;;5012860;28;20064;-70
2021/09/07 02:16:57;;;;;;;12.07;6.80;;;;;;;;;;5013279;28;20056;-69
2021/09/07 02:19:26;;;;;;;11.70;6.25;;;;;;;;;;5012889;28;20108;-71
2021/09/07 02:21:54;;;;;;;12.82;6.68;;;;;;;;;;5012993;28;20410;-68
2021/09/07 02:24:22;;;;;;;12.73;6.30;;;;;;;;;;5012103;28;20060;-67
2021/09/07 02:26:50;;;;;;;13.35;7.10;;;;;;;;;;5013848;28;20049;-67
2021/09/07 02:29:19;;;;;;;11.82;5.93;;;;;;;;;;5013630;28;20050;-68
2021/09/07 02:31:48;;;;;;;10.35;5.85;;;;;;;;;;5005226;28;20048;-68
2021/09/07 02:34:18;;;;;;;12.93;5.70;;;;;;;;;;5012439;28;20234;-68
2021/09/07 02:36:47;;;;;;;12.18;6.22;;;;;;;;;;5012230;28;20050;-68
2021/09/07 02:39:15;;;;;;;14.40;6.80;;;;;;;;;;5012917;28;20052;-67
2021/09/07 02:41:43;;;;;;;13.90;6.47;;;;;;;;;;5013307;28;20486;-67
2021/09/07 02:44:11;;;;;;;12.10;6.72;;;;;;;;;;5012098;28;20050;-69
2021/09/07 02:46:39;;;;;;;12.48;7.00;;;;;;;;;;5013124;28;20052;-67
2021/09/07 02:49:09;;;;;;;12.13;6.07;;;;;;;;;;5013189;28;20046;-68
2021/09/07 02:51:37;;;;;;;10.73;5.75;;;;;;;;;;5009813;28;20054;-68
2021/09/07 02:54:05;;;;;;;13.35;6.70;;;;;;;;;;4993251;28;20050;-69
2021/09/07 02:56:34;;;;;;;12.40;6.35;;;;;;;;;;4995949;28;20471;-67
2021/09/07 02:59:02;;;;;;;12.57;5.85;;;;;;;;;;5011598;28;20060;-67
2021/09/07 03:01:30;;;;;;;10.25;6.05;;;;;;;;;;5011471;28;20042;-70
2021/09/07 03:03:59;;;;;;;10.60;5.88;;;;;;;;;;5010380;28;20058;-67
2021/09/07 03:06:29;;;;;;;7.88;5.00;;;;;;;;;;5012731;28;20054;-71
2021/09/07 03:08:57;;;;;;;10.45;5.53;;;;;;;;;;5011650;28;20054;-71
2021/09/07 03:11:25;;;;;;;11.05;5.85;;;;;;;;;;5012269;28;20045;-67
2021/09/07 03:13:54;;;;;;;12.23;5.75;;;;;;;;;;5011219;28;20482;-68
2021/09/07 03:16:22;;;;;;;10.38;5.53;;;;;;;;;;5008820;28;20050;-68
2021/09/07 03:18:51;;;;;;;10.50;5.50;;;;;;;;;;5010427;28;20079;-69
2021/09/07 03:21:20;;;;;;;11.30;6.03;;;;;;;;;;5012144;28;20042;-68
2021/09/07 03:23:49;;;;;;;11.38;5.90;;;;;;;;;;5000127;28;20050;-69
2021/09/07 03:26:17;;;;;;;9.20;5.32;;;;;;;;;;5011833;28;20724;-67
2021/09/07 03:28:46;;;;;;;14.00;6.20;;;;;;;;;;5007428;28;20053;-69
2021/09/07 03:31:14;;;;;;;11.43;5.72;;;;;;;;;;5007900;28;20417;-68
2021/09/07 03:33:42;;;;;;;18.33;6.03;;;;;;;;;;5007522;28;20054;-68
2021/09/07 03:36:10;;;;;;;12.73;6.00;;;;;;;;;;5007692;28;20045;-69
2021/09/07 03:38:42;;;;;;;15.65;5.45;;;;;;;;;;3662943;28;10020756;-67
2021/09/07 03:41:12;;;;;;;11.05;5.40;;;;;;;;;;1726077;28;10002052;-67
2021/09/07 03:43:40;;;;;;;10.55;5.60;;;;;;;;;;5010394;28;20048;-69
2021/09/07 03:46:09;;;;;;;11.18;5.47;;;;;;;;;;4998648;28;20129;-67
2021/09/07 03:48:37;;;;;;;10.18;5.60;;;;;;;;;;5012339;28;20415;-67
2021/09/07 03:51:05;;;;;;;14.23;6.10;;;;;;;;;;5011487;28;20490;-67
2021/09/07 03:53:34;;;;;;;24.52;7.60;;;;;;;;;;5011207;28;20122;-67
2021/09/07 03:56:02;;;;;;;20.95;7.95;;;;;;;;;;5009534;28;20072;-67
2021/09/07 03:58:31;;;;;;;20.42;7.40;;;;;;;;;;5009185;28;20478;-67
2021/09/07 04:01:00;;;;;;;16.55;7.32;;;;;;;;;;5011812;28;20052;-67
2021/09/07 04:03:28;;;;;;;17.45;6.57;;;;;;;;;;5009992;28;20053;-70
2021/09/07 04:05:57;;;;;;;23.27;8.07;;;;;;;;;;5009694;28;20054;-69
2021/09/07 04:08:25;;;;;;;15.65;6.72;;;;;;;;;;5011277;28;20450;-67
2021/09/07 04:10:53;;;;;;;16.80;6.80;;;;;;;;;;5011563;28;20089;-67
2021/09/07 04:13:21;;;;;;;15.32;6.30;;;;;;;;;;5011481;28;20050;-67
2021/09/07 04:15:51;;;;;;;13.70;6.80;;;;;;;;;;5011560;28;20581;-67
2021/09/07 04:18:19;;;;;;;11.85;5.55;;;;;;;;;;5010871;28;20414;-68
2021/09/07 04:20:47;;;;;;;11.60;5.55;;;;;;;;;;4996217;28;20041;-72
2021/09/07 04:23:16;;;;;;;11.23;5.60;;;;;;;;;;5010088;28;20060;-67
2021/09/07 04:25:44;;;;;;;11.57;5.32;;;;;;;;;;5009548;28;20041;-69
2021/09/07 04:28:12;;;;;;;11.60;5.40;;;;;;;;;;5008487;28;20060;-68
2021/09/07 04:30:40;;;;;;;11.40;5.35;;;;;;;;;;5008529;28;20422;-68
2021/09/07 04:33:10;;;;;;;12.55;5.60;;;;;;;;;;5007460;28;20589;-67
2021/09/07 04:35:38;;;;;;;11.20;5.32;;;;;;;;;;5007116;28;20125;-71
2021/09/07 04:38:06;;;;;;;10.73;5.40;;;;;;;;;;5007445;28;20053;-68
2021/09/07 04:40:35;;;;;;;10.68;5.30;;;;;;;;;;5004362;28;20132;-68
2021/09/07 04:43:03;;;;;;;9.05;5.72;;;;;;;;;;5008010;28;20046;-69
2021/09/07 04:45:31;;;;;;;9.23;4.88;;;;;;;;;;5007832;28;20519;-71
2021/09/07 04:47:59;;;;;;;9.90;5.50;;;;;;;;;;5006954;28;20072;-69
2021/09/07 04:50:29;;;;;;;9.90;5.00;;;;;;;;;;5007992;28;20057;-71
2021/09/07 04:52:57;;;;;;;7.82;4.63;;;;;;;;;;5008132;28;20069;-71
2021/09/07 04:55:26;;;;;;;9.50;4.93;;;;;;;;;;5007258;28;20045;-68
2021/09/07 04:57:54;;;;;;;8.50;4.55;;;;;;;;;;5007673;28;20130;-68
2021/09/07 05:00:22;;;;;;;8.75;4.90;;;;;;;;;;5008256;28;20049;-67
2021/09/07 05:02:51;;;;;;;10.57;5.65;;;;;;;;;;5006348;28;20041;-69
2021/09/07 05:05:19;;;;;;;12.63;5.32;;;;;;;;;;5004590;28;20065;-70
2021/09/07 05:07:49;;;;;;;9.73;4.82;;;;;;;;;;5001005;28;20066;-68
2021/09/07 05:10:17;;;;;;;10.07;5.28;;;;;;;;;;5007906;28;20045;-67
2021/09/07 05:12:45;;;;;;;11.85;6.07;;;;;;;;;;5008493;28;20141;-67
2021/09/07 05:15:14;;;;;;;9.68;5.03;;;;;;;;;;5007473;28;20113;-67
2021/09/07 05:17:44;;;;;;;8.45;4.97;;;;;;;;;;5006668;28;20104;-67
2021/09/07 05:20:12;;;;;;;11.40;5.30;;;;;;;;;;5007249;28;20387;-67
2021/09/07 05:22:40;;;;;;;11.90;6.00;;;;;;;;;;4995633;28;20089;-70
2021/09/07 05:25:11;;;;;;;14.52;6.32;;;;;;;;;;5002630;28;20129;-67
2021/09/07 05:27:39;;;;;;;12.07;5.53;;;;;;;;;;5008363;28;20050;-70
2021/09/07 05:30:09;;;;;;;17.30;5.88;;;;;;;;;;5008033;28;20064;-71
2021/09/07 05:32:38;;;;;;;11.32;5.70;;;;;;;;;;5007349;28;20052;-67
2021/09/07 05:35:06;;;;;;;10.27;5.22;;;;;;;;;;5006395;28;20124;-68
2021/09/07 05:37:39;;;;;;;11.05;5.70;;;;;;;;;;5006421;28;20132;-70
2021/09/07 05:40:08;;;;;;;12.98;6.40;;;;;;;;;;5006566;28;20136;-67
2021/09/07 05:42:42;;;;;;;9.18;5.20;;;;;;;;;;5010873;28;20058;-67
2021/09/07 05:45:10;;;;;;;10.75;4.90;;;;;;;;;;5010712;28;20115;-68
2021/09/07 05:47:39;;;;;;;11.43;5.07;;;;;;;;;;5011784;28;20050;-70
2021/09/07 05:50:08;;;;;;;10.90;5.57;;;;;;;;;;5011272;28;20049;-68
2021/09/07 05:52:38;;;;;;;12.95;5.60;;;;;;;;;;5008858;28;20492;-70
2021/09/07 05:55:07;;;;;;;9.85;5.05;;;;;;;;;;5010109;28;20064;-68
2021/09/07 05:57:35;;;;;;;11.73;5.75;;;;;;;;;;5011822;28;20085;-70
2021/09/07 06:00:06;;;;;;;14.20;5.82;;;;;;;;;;5012428;28;20133;-67
2021/09/07 06:02:36;;;;;;;10.75;5.57;;;;;;;;;;5012550;28;20054;-68
2021/09/07 06:05:05;;;;;;;10.82;5.63;;;;;;;;;;5010296;28;20053;-67
2021/09/07 06:07:34;;;;;;;11.48;5.70;;;;;;;;;;5011398;28;20185;-68
2021/09/07 06:10:02;;;;;;;11.82;5.55;;;;;;;;;;5011185;28;20093;-68
2021/09/07 06:12:31;;;;;;;10.55;5.60;;;;;;;;;;5011045;28;20108;-68
2021/09/07 06:14:59;;;;;;;10.25;5.47;;;;;;;;;;5010389;28;20172;-67
2021/09/07 06:17:29;;;;;;;11.15;5.78;;;;;;;;;;5011412;28;20046;-71
2021/09/07 06:19:57;;;;;;;10.50;5.45;;;;;;;;;;5011165;28;20052;-72
2021/09/07 06:22:25;;;;;;;10.68;5.10;;;;;;;;;;5011653;28;20100;-66
2021/09/07 06:24:55;;;;;;;12.18;6.30;;;;;;;;;;5009137;28;20132;-67
2021/09/07 06:27:23;;;;;;;12.88;6.93;;;;;;;;;;5009959;28;20053;-67
2021/09/07 06:29:52;;;;;;;14.32;6.68;;;;;;;;;;5010760;28;20437;-67
2021/09/07 06:32:20;;;;;;;13.18;7.05;;;;;;;;;;5004698;28;20049;-67
2021/09/07 06:34:50;;;;;;;11.70;6.70;;;;;;;;;;4997135;28;20355;-67
2021/09/07 06:37:19;;;;;;;13.85;6.53;;;;;;;;;;4995662;28;20185;-73
2021/09/07 06:39:47;;;;;;;18.48;7.20;;;;;;;;;;5008290;28;20061;-67
2021/09/07 06:42:16;;;;;;;12.00;6.32;;;;;;;;;;5009225;28;20161;-69
2021/09/07 06:44:44;;;;;;;13.18;7.25;;;;;;;;;;5009004;28;20053;-67
2021/09/07 06:47:13;;;;;;;11.95;6.50;;;;;;;;;;5010069;28;20056;-66
2021/09/07 06:49:41;;;;;;;14.98;6.60;;;;;;;;;;5006860;28;20417;-70
2021/09/07 06:52:11;;;;;;;14.52;7.07;;;;;;;;;;5008589;28;20092;-68
2021/09/07 06:54:39;;;;;;;14.82;6.63;;;;;;;;;;5008422;28;20050;-68
2021/09/07 06:57:08;;;;;;;16.73;7.05;;;;;;;;;;5009055;28;20049;-67
2021/09/07 06:59:36;;;;;;;12.05;6.50;;;;;;;;;;5004045;28;20148;-67
2021/09/07 07:02:05;;;;;;;18.98;8.95;;;;;;;;;;5008363;28;20495;-68
2021/09/07 07:04:34;;;;;;;17.42;8.43;;;;;;;;;;5015246;28;20413;-72
2021/09/07 07:07:02;;;;;;;15.15;8.65;;;;;;;;;;5011678;28;20045;-68
2021/09/07 07:09:32;;;;;;;16.98;8.40;;;;;;;;;;5010000;28;20058;-73
2021/09/07 07:12:00;;;;;;;14.85;8.10;;;;;;;;;;5004872;28;20046;-67
2021/09/07 07:14:29;;;;;;;18.75;8.07;;;;;;;;;;4993159;28;20066;-70
2021/09/07 07:16:57;;;;;;;14.10;7.60;;;;;;;;;;5005904;28;20445;-74
2021/09/07 07:19:26;;;;;;;15.15;8.32;;;;;;;;;;4997628;28;20041;-67
2021/09/07 07:21:54;;;;;;;15.10;8.35;;;;;;;;;;5004371;28;20085;-69
2021/09/07 07:24:23;;;;;;;13.40;7.53;;;;;;;;;;4994130;28;20089;-68
2021/09/07 07:27:02;;;;;;;19.67;7.97;;;;;;;;;;4997721;28;20049;-68
2021/09/07 07:29:31;;;;;;;17.98;8.57;;;;;;;;;;5008615;28;20051;-67
2021/09/07 07:31:59;;;;;;;17.52;8.52;;;;;;;;;;5001928;28;20359;-68
2021/09/07 07:34:28;;;;;;;16.90;9.15;;;;;;;;;;5007758;28;20442;-73
2021/09/07 07:36:57;;;;;;;16.13;8.30;;;;;;;;;;5002647;28;20060;-67
2021/09/07 07:39:26;;;;;;;16.02;8.02;;;;;;;;;;5009138;28;20058;-67
2021/09/07 07:41:55;;;;;;;16.70;7.80;;;;;;;;;;5007161;28;20046;-69
2021/09/07 07:44:25;;;;;;;14.55;7.53;;;;;;;;;;5006105;28;20058;-68
2021/09/07 07:46:54;;;;;;;15.52;8.15;;;;;;;;;;5008806;28;20556;-67
2021/09/07 07:49:23;;;;;;;15.07;8.10;;;;;;;;;;5009396;28;20046;-69
2021/09/07 07:51:51;;;;;;;16.85;8.35;;;;;;;;;;5008045;28;20049;-70
2021/09/07 07:54:20;;;;;;;18.38;8.82;;;;;;;;;;5002678;28;20469;-68
2021/09/07 07:56:50;;;;;;;21.10;8.95;;;;;;;;;;5006480;28;20053;-69
2021/09/07 07:59:18;;;;;;;13.85;7.70;;;;;;;;;;5001531;28;20493;-69
2021/09/07 08:01:48;;;;;;;14.70;7.35;;;;;;;;;;5007351;28;20073;-67
2021/09/07 08:04:18;;;;;;;15.85;8.35;;;;;;;;;;5007397;28;20061;-67
2021/09/07 08:06:48;;;;;;;15.68;7.82;;;;;;;;;;5006199;28;20054;-67
2021/09/07 08:09:17;;;;;;;19.67;8.38;;;;;;;;;;5005444;28;20050;-69
2021/09/07 08:11:46;;;;;;;14.32;7.85;;;;;;;;;;5010551;28;20441;-67
2021/09/07 08:14:15;;;;;;;16.73;8.43;;;;;;;;;;5010162;28;20054;-67
2021/09/07 08:16:43;;;;;;;15.48;7.47;;;;;;;;;;5011090;28;20088;-67
2021/09/07 08:19:13;;;;;;;20.08;7.85;;;;;;;;;;5010296;28;20085;-69
2021/09/07 08:21:42;;;;;;;18.17;8.73;;;;;;;;;;5011271;28;20137;-67
2021/09/07 08:24:11;;;;;;;14.43;6.68;;;;;;;;;;5001443;28;20077;-66
2021/09/07 08:26:40;;;;;;;14.27;7.57;;;;;;;;;;5009158;28;20060;-67
2021/09/07 08:29:09;;;;;;;17.02;7.60;;;;;;;;;;5008806;28;20485;-68
2021/09/07 08:31:38;;;;;;;14.43;7.43;;;;;;;;;;5011131;28;20497;-67
2021/09/07 08:34:07;;;;;;;14.52;6.90;;;;;;;;;;5009890;28;20145;-67
2021/09/07 08:36:37;;;;;;;15.40;7.50;;;;;;;;;;5010199;28;20291;-69
2021/09/07 08:39:06;;;;;;;11.70;6.93;;;;;;;;;;5000621;28;20550;-71
2021/09/07 08:41:35;;;;;;;17.42;7.28;;;;;;;;;;5010519;28;20047;-67
2021/09/07 08:44:04;;;;;;;14.32;6.85;;;;;;;;;;5017998;28;20049;-72
2021/09/07 08:46:33;;;;;;;16.58;8.20;;;;;;;;;;5010114;28;20046;-67
2021/09/07 08:49:13;;;;;;;17.98;7.47;;;;;;;;;;5008581;28;20050;-67
2021/09/07 08:51:43;;;;;;;12.40;6.70;;;;;;;;;;5013587;28;20075;-67
2021/09/07 08:54:12;;;;;;;14.20;7.30;;;;;;;;;;5023463;28;20112;-67
2021/09/07 08:56:40;;;;;;;13.32;6.88;;;;;;;;;;5009210;28;20060;-67
2021/09/07 08:59:09;;;;;;;12.38;6.60;;;;;;;;;;5008291;28;20538;-67
2021/09/07 09:01:39;;;;;;;14.38;6.90;;;;;;;;;;5008428;28;20060;-67
2021/09/07 09:04:25;;;;;;;11.10;6.20;;;;;;;;;;4996392;28;20054;-68
2021/09/07 09:06:55;;;;;;;13.30;7.13;;;;;;;;;;5010034;28;20050;-67
2021/09/07 09:09:35;;;;;;;12.15;6.57;;;;;;;;;;5009067;28;20085;-67
2021/09/07 09:12:05;;;;;;;11.50;6.13;;;;;;;;;;5010195;28;20101;-69
2021/09/07 09:14:38;;;;;;;11.75;6.45;;;;;;;;;;5007992;28;20486;-67
2021/09/07 09:17:23;;;;;;;11.40;5.80;;;;;;;;;;5010817;28;20042;-71
2021/09/07 09:19:52;;;;;;;14.77;7.43;;;;;;;;;;5006562;28;20104;-67
2021/09/07 09:22:24;;;;;;;13.95;6.25;;;;;;;;;;5005255;28;20409;-67
2021/09/07 09:24:53;;;;;;;9.95;5.93;;;;;;;;;;5009879;28;20395;-67
2021/09/07 09:27:27;;;;;;;10.60;6.38;;;;;;;;;;5006782;28;20046;-67
2021/09/07 09:29:56;;;;;;;12.07;6.30;;;;;;;;;;5008891;28;20441;-68
2021/09/07 09:32:27;;;;;;;11.18;5.90;;;;;;;;;;5010089;28;20486;-70
2021/09/07 09:35:06;;;;;;;10.43;5.78;;;;;;;;;;5009892;28;20064;-68
2021/09/07 09:37:37;;;;;;;11.10;5.65;;;;;;;;;;5010237;28;20085;-70
2021/09/07 09:40:08;;;;;;;12.52;6.95;;;;;;;;;;5008829;28;20045;-67
2021/09/07 09:42:37;;;;;;;12.35;6.15;;;;;;;;;;5003331;28;20050;-68
2021/09/07 09:45:07;;;;;;;9.98;5.50;;;;;;;;;;5008307;28;20049;-67
2021/09/07 09:47:40;;;;;;;10.95;6.13;;;;;;;;;;5009815;28;20136;-67
2021/09/07 09:50:09;;;;;;;10.90;5.78;;;;;;;;;;5008669;28;20449;-70
2021/09/07 09:52:40;;;;;;;10.25;5.57;;;;;;;;;;5010030;28;20057;-70
2021/09/07 09:55:10;;;;;;;9.70;5.60;;;;;;;;;;5008576;28;20042;-70
2021/09/07 09:57:40;;;;;;;11.10;5.38;;;;;;;;;;5009812;28;20053;-68
2021/09/07 10:00:09;;;;;;;10.85;5.80;;;;;;;;;;5003187;28;20566;-68
2021/09/07 10:02:38;;;;;;;9.13;4.90;;;;;;;;;;5004770;28;20330;-69
2021/09/07 10:05:08;;;;;;;11.20;6.13;;;;;;;;;;5009112;28;20050;-67
2021/09/07 10:07:49;;;;;;;12.23;5.47;;;;;;;;;;5008574;28;20125;-70
2021/09/07 10:10:20;;;;;;;10.02;5.90;;;;;;;;;;5008713;28;20459;-70
2021/09/07 10:12:55;;;;;;;9.20;5.13;;;;;;;;;;5002714;28;20064;-68
2021/09/07 10:15:27;;;;;;;11.02;6.10;;;;;;;;;;5008952;28;20531;-76
2021/09/07 10:18:17;;;;;;;10.18;5.88;;;;;;;;;;4992931;28;20054;-71
2021/09/07 10:20:48;;;;;;;9.02;5.95;;;;;;;;;;4997380;28;20049;-67
2021/09/07 10:23:31;;;;;;;10.27;5.75;;;;;;;;;;5008343;28;20048;-68
2021/09/07 10:26:01;;;;;;;10.35;5.70;;;;;;;;;;5011172;28;20136;-77
2021/09/07 10:28:37;;;;;;;12.63;5.57;;;;;;;;;;5012328;28;20052;-71
2021/09/07 10:31:07;;;;;;;9.82;6.07;;;;;;;;;;5012117;28;20135;-67
2021/09/07 10:33:37;;;;;;;10.60;6.65;;;;;;;;;;5005406;28;20475;-67
2021/09/07 10:36:07;;;;;;;11.57;6.60;;;;;;;;;;5004910;28;20569;-68
2021/09/07 10:38:40;;;;;;;13.05;6.45;;;;;;;;;;5012251;28;20541;-67
2021/09/07 10:41:09;;;;;;;9.80;5.45;;;;;;;;;;5012500;28;20085;-67
2021/09/07 10:43:54;;;;;;;10.98;5.40;;;;;;;;;;5012389;28;20045;-69
2021/09/07 10:46:22;;;;;;;;;;;;;;;;;;5013261;28;20116;-73
2021/09/07 10:49:11;;;;;;;10.07;5.25;;;;;;;;;;5012128;28;19921;-67
2021/09/07 10:51:54;;;;;;;11.82;5.28;;;;;;;;;;5003334;28;20073;-67
2021/09/07 10:54:24;;;;;;;9.63;5.40;;;;;;;;;;4994992;28;20150;-67
2021/09/07 10:56:56;;;;;;;9.93;5.78;;;;;;;;;;5007146;28;20054;-67
2021/09/07 10:59:43;;;;;;;7.90;5.47;;;;;;;;;;5030242;28;20049;-67
2021/09/07 11:02:30;;;;;;;11.05;6.22;;;;;;;;;;5017680;28;20050;-67
2021/09/07 11:05:11;;;;;;;9.05;5.63;;;;;;;;;;5005035;28;20494;-67
2021/09/07 11:07:41;;;;;;;9.65;5.18;;;;;;;;;;5011213;28;20050;-68
2021/09/07 11:10:24;;;;;;;10.20;5.70;;;;;;;;;;5011055;28;20065;-70
2021/09/07 11:12:55;;;;;;;9.73;5.30;;;;;;;;;;5009700;28;20049;-67
2021/09/07 11:15:25;;;;;;;7.45;4.88;;;;;;;;;;5012071;28;20053;-71
2021/09/07 11:17:54;;;;;;;10.32;5.55;;;;;;;;;;5023733;28;20054;-70
2021/09/07 11:20:25;;;;;;;9.55;5.38;;;;;;;;;;5011611;28;20054;-68
2021/09/07 11:22:54;;;;;;;8.35;5.03;;;;;;;;;;5010136;28;20034;-68
2021/09/07 11:25:24;;;;;;;8.93;5.30;;;;;;;;;;5009975;28;20049;-72
2021/09/07 11:27:58;;;;;;;8.75;5.55;;;;;;;;;;5013941;28;20393;-67
2021/09/07 11:30:28;;;;;;;7.43;4.90;;;;;;;;;;5001405;28;20128;-71
2021/09/07 11:33:01;;;;;;;10.32;5.40;;;;;;;;;;5004951;28;20052;-74
2021/09/07 11:35:30;;;;;;;9.35;5.60;;;;;;;;;;5008676;28;20050;-74
2021/09/07 11:38:02;;;;;;;9.40;5.85;;;;;;;;;;5010658;28;20050;-72
2021/09/07 11:40:32;;;;;;;9.30;5.25;;;;;;;;;;5009214;28;20117;-67
2021/09/07 11:43:03;;;;;;;8.27;5.25;;;;;;;;;;5004992;28;20362;-67
2021/09/07 11:45:32;;;;;;;10.05;5.70;;;;;;;;;;5008301;28;20136;-69
2021/09/07 11:48:02;;;;;;;8.65;5.60;;;;;;;;;;5008090;28;20076;-70
2021/09/07 11:50:31;;;;;;;7.85;5.15;;;;;;;;;;5008930;28;20127;-68
2021/09/07 11:53:01;;;;;;;7.85;5.07;;;;;;;;;;5006558;28;20529;-73
2021/09/07 11:55:44;;;;;;;8.38;5.13;;;;;;;;;;5007347;28;20485;-77
2021/09/07 11:58:25;;;;;;;8.88;5.43;;;;;;;;;;5003304;28;20815;-69
2021/09/07 12:01:01;;;;;;;10.00;5.30;;;;;;;;;;5008066;28;20077;-72
2021/09/07 12:03:38;;;;;;;7.25;5.18;;;;;;;;;;5007367;28;20112;-72
2021/09/07 12:06:07;;;;;;;9.85;5.80;;;;;;;;;;4961179;28;20094;-74
2021/09/07 12:08:40;;;;;;;8.02;5.13;;;;;;;;;;4964865;28;20403;-70
2021/09/07 12:11:10;;;;;;;8.18;5.22;;;;;;;;;;4961477;28;20074;-74
2021/09/07 12:13:40;;;;;;;8.48;5.40;;;;;;;;;;4966518;28;20812;-69
2021/09/07 12:16:09;;;;;;;10.27;5.70;;;;;;;;;;4969146;28;20050;-74
2021/09/07 12:18:39;;;;;;;8.10;5.35;;;;;;;;;;4968706;28;20525;-71
2021/09/07 12:21:12;;;;;;;8.50;5.55;;;;;;;;;;4967958;28;20098;-71
2021/09/07 12:23:43;;;;;;;7.75;5.10;;;;;;;;;;4967356;28;20502;-73
2021/09/07 12:26:12;;;;;;;8.95;5.57;;;;;;;;;;4963305;28;20526;-72
2021/09/07 12:28:42;;;;;;;8.80;5.05;;;;;;;;;;4967617;28;20043;-76
2021/09/07 12:31:12;;;;;;;8.50;5.30;;;;;;;;;;4967837;28;20061;-69
2021/09/07 12:33:42;;;;;;;10.43;5.80;;;;;;;;;;4966747;28;20074;-72
2021/09/07 12:36:11;;;;;;;8.00;5.18;;;;;;;;;;4967620;28;20450;-69
2021/09/07 12:38:40;;;;;;;8.07;5.28;;;;;;;;;;4964492;28;20080;-72
2021/09/07 12:41:10;;;;;;;8.15;5.32;;;;;;;;;;4966435;28;20078;-79
2021/09/07 12:43:41;;;;;;;8.98;5.30;;;;;;;;;;4964007;28;20053;-72
2021/09/07 12:46:13;;;;;;;10.15;5.78;;;;;;;;;;4968042;28;20081;-72
2021/09/07 12:48:42;;;;;;;10.60;5.93;;;;;;;;;;4967058;28;20054;-70
2021/09/07 12:51:13;;;;;;;11.23;5.93;;;;;;;;;;4967247;28;20066;-68
2021/09/07 12:53:43;;;;;;;10.35;5.47;;;;;;;;;;4967391;28;20043;-72
2021/09/07 12:56:13;;;;;;;7.82;5.07;;;;;;;;;;4962585;28;20066;-73
2021/09/07 12:58:44;;;;;;;9.80;5.45;;;;;;;;;;4967526;28;20522;-69
2021/09/07 13:01:14;;;;;;;9.48;5.68;;;;;;;;;;4968366;28;20137;-69
2021/09/07 13:03:43;;;;;;;9.50;5.47;;;;;;;;;;4966500;28;20073;-73
2021/09/07 13:06:12;;;;;;;9.80;5.35;;;;;;;;;;5007839;28;20054;-71
2021/09/07 13:08:41;;;;;;;9.15;4.72;;;;;;;;;;4998932;28;20108;-78
2021/09/07 13:11:10;;;;;;;8.63;5.40;;;;;;;;;;5007152;28;20457;-74
2021/09/07 13:13:38;;;;;;;8.63;5.38;;;;;;;;;;5006306;28;20045;-70
2021/09/07 13:16:07;;;;;;;7.68;5.07;;;;;;;;;;5006532;28;20083;-70
2021/09/07 13:18:37;;;;;;;7.55;5.13;;;;;;;;;;5006562;28;20564;-73
2021/09/07 13:21:08;;;;;;;8.43;5.57;;;;;;;;;;5006713;28;20042;-69
2021/09/07 13:23:36;;;;;;;7.68;5.32;;;;;;;;;;4998096;28;20135;-69
2021/09/07 13:26:05;;;;;;;8.93;5.18;;;;;;;;;;5006679;28;20077;-71
2021/09/07 13:28:34;;;;;;;7.72;5.40;;;;;;;;;;5005947;28;20057;-73
2021/09/07 13:31:08;;;;;;;7.72;5.05;;;;;;;;;;5007218;28;20054;-71
2021/09/07 13:33:39;;;;;;;8.98;5.40;;;;;;;;;;5001857;28;20137;-78
2021/09/07 13:36:08;;;;;;;7.22;4.78;;;;;;;;;;5002223;28;20053;-72
2021/09/07 13:38:36;;;;;;;10.45;4.80;;;;;;;;;;5006402;28;20106;-71
2021/09/07 13:41:05;;;;;;;10.88;5.57;;;;;;;;;;5007017;28;20080;-75
2021/09/07 13:43:33;;;;;;;8.18;5.03;;;;;;;;;;5006181;28;20080;-81
2021/09/07 13:46:02;;;;;;;9.20;5.25;;;;;;;;;;5000795;28;20049;-74
2021/09/07 13:48:35;;;;;;;8.02;5.35;;;;;;;;;;5006249;28;20132;-78
2021/09/07 13:51:04;;;;;;;8.43;5.03;;;;;;;;;;4997933;28;20042;-71
2021/09/07 13:53:50;;;;;;;8.52;4.60;;;;;;;;;;5005122;28;20049;-70
2021/09/07 13:56:19;;;;;;;9.13;5.15;;;;;;;;;;5007318;28;20053;-70
2021/09/07 13:58:48;;;;;;;8.27;5.07;;;;;;;;;;5006310;28;20092;-79
2021/09/07 14:01:17;;;;;;;8.60;4.90;;;;;;;;;;5012301;28;20049;-68
2021/09/07 14:03:46;;;;;;;7.72;4.70;;;;;;;;;;5011740;28;20124;-71
2021/09/07 14:06:17;;;;;;;7.55;5.05;;;;;;;;;;5013257;28;20636;-69
2021/09/07 14:08:48;;;;;;;8.48;5.05;;;;;;;;;;5014483;28;20054;-69
2021/09/07 14:11:20;;;;;;;7.35;4.85;;;;;;;;;;5013679;28;20045;-73
2021/09/07 14:13:49;;;;;;;9.63;4.80;;;;;;;;;;5007787;28;20132;-71
2021/09/07 14:16:18;;;;;;;8.60;4.97;;;;;;;;;;5012657;28;20464;-72
2021/09/07 14:18:47;;;;;;;8.07;4.82;;;;;;;;;;5012412;28;20069;-69
2021/09/07 14:21:18;;;;;;;8.60;4.78;;;;;;;;;;5012765;28;20061;-70
2021/09/07 14:23:47;;;;;;;7.03;4.80;;;;;;;;;;4993204;28;20042;-70
2021/09/07 14:26:16;;;;;;;8.13;4.72;;;;;;;;;;4993974;28;20046;-68
2021/09/07 14:28:45;;;;;;;8.30;4.85;;;;;;;;;;5012568;28;20081;-69
2021/09/07 14:31:14;;;;;;;6.35;4.40;;;;;;;;;;5008940;28;20058;-72
2021/09/07 14:33:44;;;;;;;9.20;4.80;;;;;;;;;;5011217;28;20085;-74
2021/09/07 14:36:13;;;;;;;9.48;5.18;;;;;;;;;;5011846;28;20115;-69
2021/09/07 14:38:43;;;;;;;6.55;4.13;;;;;;;;;;5011865;28;20082;-71
2021/09/07 14:41:12;;;;;;;9.07;5.10;;;;;;;;;;5012631;28;20050;-69
2021/09/07 14:43:41;;;;;;;7.93;4.47;;;;;;;;;;5011667;28;20137;-68
2021/09/07 14:46:10;;;;;;;7.70;4.75;;;;;;;;;;5002062;28;20407;-69
2021/09/07 14:48:39;;;;;;;7.78;4.70;;;;;;;;;;5011757;28;20498;-68